Time;durP1;ratioP1;P1;durP2;ratioP2;P2;SDS_P1;SDS_P2;PMS_P1;PMS_P2;Temp;Humidity;BMP_temperature;BMP_pressure;BME280_temperature;BME280_humidity;BME280_pressure;Samples;Min_cycle;Max_cycle;Signal;HPM_P1;HPM_P2
2022/04/19 00:00:32;;;;;;;4.43;2.70;;;;;;;;;;5055547;28;20112;-78
2022/04/19 00:02:57;;;;;;;4.50;2.80;;;;;;;;;;5055318;28;20500;-78
2022/04/19 00:05:22;;;;;;;5.10;2.83;;;;;;;;;;5055378;28;20104;-80
2022/04/19 00:07:47;;;;;;;5.30;2.70;;;;;;;;;;5055196;28;20305;-78
2022/04/19 00:10:13;;;;;;;5.15;3.00;;;;;;;;;;5055095;28;20021;-79
2022/04/19 00:12:38;;;;;;;4.10;2.67;;;;;;;;;;5055542;28;20029;-77
2022/04/19 00:15:04;;;;;;;4.75;2.70;;;;;;;;;;5053896;28;20029;-78
2022/04/19 00:17:30;;;;;;;5.35;2.58;;;;;;;;;;5052535;28;20025;-78
2022/04/19 00:19:55;;;;;;;4.35;2.60;;;;;;;;;;5053670;28;20029;-78
2022/04/19 00:22:20;;;;;;;4.40;2.42;;;;;;;;;;5052536;28;20066;-78
2022/04/19 00:24:45;;;;;;;3.92;2.67;;;;;;;;;;5054137;28;20017;-78
2022/04/19 00:27:11;;;;;;;4.82;2.83;;;;;;;;;;5053902;28;20399;-78
2022/04/19 00:29:37;;;;;;;5.32;2.92;;;;;;;;;;5053778;28;20025;-77
2022/04/19 00:32:03;;;;;;;4.93;2.72;;;;;;;;;;5053589;28;20025;-78
2022/04/19 00:34:28;;;;;;;7.97;2.63;;;;;;;;;;5054449;28;20028;-78
2022/04/19 00:36:54;;;;;;;6.18;2.72;;;;;;;;;;5054406;28;20016;-78
2022/04/19 00:39:19;;;;;;;5.03;3.00;;;;;;;;;;5055632;28;20092;-78
2022/04/19 00:41:44;;;;;;;4.80;2.70;;;;;;;;;;5055796;28;20297;-78
2022/04/19 00:44:11;;;;;;;5.07;2.72;;;;;;;;;;5056119;28;20258;-78
2022/04/19 00:46:36;;;;;;;4.15;2.85;;;;;;;;;;5056485;28;20021;-79
2022/04/19 00:49:01;;;;;;;6.63;2.80;;;;;;;;;;5055722;28;20039;-79
2022/04/19 00:51:27;;;;;;;6.85;3.03;;;;;;;;;;5055992;28;20029;-78
2022/04/19 00:53:52;;;;;;;5.18;2.80;;;;;;;;;;5055771;28;20036;-79
2022/04/19 00:56:17;;;;;;;5.32;2.78;;;;;;;;;;5054010;28;20032;-78
2022/04/19 00:58:43;;;;;;;6.88;2.83;;;;;;;;;;5051925;28;20025;-78
2022/04/19 01:01:08;;;;;;;5.43;2.78;;;;;;;;;;5052266;28;20025;-77
2022/04/19 01:03:33;;;;;;;4.07;2.83;;;;;;;;;;5052743;28;20116;-78
2022/04/19 01:05:59;;;;;;;6.22;2.88;;;;;;;;;;5054468;28;20025;-79
2022/04/19 01:08:25;;;;;;;8.60;3.03;;;;;;;;;;5055506;28;20029;-78
2022/04/19 01:13:17;;;;;;;5.18;2.70;;;;;;;;;;5055640;28;20055;-79
2022/04/19 01:13:36;;;;;;;3.80;2.50;;;;;;;;;;5054110;28;20036;-78
2022/04/19 01:16:02;;;;;;;4.60;2.50;;;;;;;;;;5053589;28;20047;-78
2022/04/19 01:18:29;;;;;;;3.60;2.50;;;;;;;;;;5052901;28;20032;-78
2022/04/19 01:20:55;;;;;;;5.15;2.67;;;;;;;;;;5051884;28;20025;-78
2022/04/19 01:23:20;;;;;;;5.10;3.00;;;;;;;;;;5055524;28;20052;-78
2022/04/19 01:25:46;;;;;;;6.32;2.72;;;;;;;;;;5055264;28;20021;-78
2022/04/19 01:28:11;;;;;;;3.22;2.28;;;;;;;;;;5054195;28;20033;-78
2022/04/19 01:30:38;;;;;;;3.25;2.35;;;;;;;;;;5053714;28;20147;-77
2022/04/19 01:33:03;;;;;;;4.93;2.38;;;;;;;;;;5051296;28;20036;-77
2022/04/19 01:35:28;;;;;;;3.15;2.08;;;;;;;;;;5052978;28;20028;-78
2022/04/19 01:37:54;;;;;;;5.07;2.30;;;;;;;;;;5054050;28;20029;-78
2022/04/19 01:40:20;;;;;;;4.57;2.57;;;;;;;;;;5053932;28;20033;-78
2022/04/19 01:42:48;;;;;;;5.60;2.30;;;;;;;;;;5054587;28;20254;-77
2022/04/19 01:45:15;;;;;;;3.97;2.35;;;;;;;;;;5052564;28;20029;-77
2022/04/19 01:47:41;;;;;;;3.50;2.25;;;;;;;;;;5055505;28;20025;-78
2022/04/19 01:50:11;;;;;;;4.07;2.10;;;;;;;;;;5057421;28;20074;-78
2022/04/19 01:52:37;;;;;;;3.63;2.38;;;;;;;;;;5058188;28;20156;-78
2022/04/19 01:55:08;;;;;;;3.78;2.30;;;;;;;;;;5057790;28;20020;-78
2022/04/19 01:57:33;;;;;;;3.67;2.20;;;;;;;;;;5055998;28;20051;-78
2022/04/19 01:59:59;;;;;;;3.28;2.28;;;;;;;;;;5056145;28;20462;-78
2022/04/19 02:02:24;;;;;;;3.80;2.10;;;;;;;;;;5057410;28;20078;-78
2022/04/19 02:04:52;;;;;;;9.05;2.45;;;;;;;;;;5057938;28;20056;-78
2022/04/19 02:07:18;;;;;;;3.85;2.25;;;;;;;;;;5058461;28;20021;-79
2022/04/19 02:09:43;;;;;;;3.50;2.08;;;;;;;;;;5059089;28;20029;-79
2022/04/19 02:12:09;;;;;;;4.32;2.20;;;;;;;;;;5058728;28;20048;-79
2022/04/19 02:14:34;;;;;;;4.50;2.30;;;;;;;;;;5056663;28;20043;-78
2022/04/19 02:17:00;;;;;;;3.92;2.40;;;;;;;;;;5056609;28;20025;-79
2022/04/19 02:19:25;;;;;;;3.90;2.10;;;;;;;;;;5057006;28;20028;-77
2022/04/19 02:21:50;;;;;;;4.50;2.10;;;;;;;;;;5055875;28;20021;-78
2022/04/19 02:24:16;;;;;;;5.10;2.33;;;;;;;;;;5055569;28;20029;-78
2022/04/19 02:26:41;;;;;;;3.17;2.10;;;;;;;;;;5057247;28;20246;-78
2022/04/19 02:29:06;;;;;;;3.85;2.35;;;;;;;;;;5056808;28;20257;-77
2022/04/19 02:31:31;;;;;;;3.35;2.30;;;;;;;;;;5055317;28;20027;-77
2022/04/19 02:33:58;;;;;;;4.03;2.20;;;;;;;;;;5057279;28;20029;-77
2022/04/19 02:36:24;;;;;;;3.50;1.88;;;;;;;;;;5057216;28;20340;-77
2022/04/19 02:38:50;;;;;;;3.53;2.20;;;;;;;;;;5056800;28;20453;-77
2022/04/19 02:41:15;;;;;;;4.05;2.13;;;;;;;;;;5056724;28;20025;-78
2022/04/19 02:43:40;;;;;;;5.10;2.40;;;;;;;;;;5055621;28;20524;-77
2022/04/19 02:46:05;;;;;;;3.80;2.40;;;;;;;;;;5056717;28;20359;-78
2022/04/19 02:48:31;;;;;;;3.47;1.90;;;;;;;;;;5056478;28;20710;-78
2022/04/19 02:50:56;;;;;;;4.00;2.20;;;;;;;;;;5056898;28;20626;-77
2022/04/19 02:53:21;;;;;;;6.35;2.72;;;;;;;;;;5055395;28;20816;-78
2022/04/19 02:55:46;;;;;;;3.83;2.13;;;;;;;;;;5055033;28;20493;-76
2022/04/19 02:58:12;;;;;;;3.42;2.05;;;;;;;;;;5054193;28;20189;-77
2022/04/19 03:00:37;;;;;;;4.40;2.45;;;;;;;;;;5054856;28;20021;-77
2022/04/19 03:03:03;;;;;;;4.65;2.28;;;;;;;;;;5055036;28;20025;-78
2022/04/19 03:05:28;;;;;;;4.10;2.50;;;;;;;;;;5054876;28;20029;-77
2022/04/19 03:07:53;;;;;;;5.82;2.30;;;;;;;;;;5054937;28;20501;-77
2022/04/19 03:10:21;;;;;;;6.18;2.78;;;;;;;;;;5054860;28;20060;-77
2022/04/19 03:12:46;;;;;;;3.70;2.28;;;;;;;;;;5055534;28;20075;-77
2022/04/19 03:15:12;;;;;;;4.85;2.17;;;;;;;;;;5055722;28;20036;-77
2022/04/19 03:17:41;;;;;;;4.10;2.28;;;;;;;;;;5054449;28;20410;-77
2022/04/19 03:20:11;;;;;;;3.10;2.03;;;;;;;;;;5054617;28;20032;-77
2022/04/19 03:28:05;;;;;;;5.90;2.35;;;;;;;;;;5055833;28;20043;-77
2022/04/19 03:30:30;;;;;;;5.43;2.47;;;;;;;;;;5054247;28;20506;-77
2022/04/19 03:32:55;;;;;;;6.07;2.60;;;;;;;;;;5054187;28;20025;-77
2022/04/19 03:35:21;;;;;;;4.72;2.70;;;;;;;;;;5054269;28;20021;-77
2022/04/19 03:37:46;;;;;;;3.72;2.55;;;;;;;;;;5054758;28;20067;-78
2022/04/19 03:40:11;;;;;;;5.85;2.80;;;;;;;;;;5056302;28;20432;-78
2022/04/19 03:42:40;;;;;;;4.05;2.85;;;;;;;;;;5055159;28;20031;-78
2022/04/19 03:45:07;;;;;;;5.72;2.83;;;;;;;;;;5055230;28;20020;-78
2022/04/19 03:47:34;;;;;;;5.20;2.78;;;;;;;;;;5055937;28;20559;-78
2022/04/19 03:50:00;;;;;;;6.20;3.28;;;;;;;;;;5055223;28;20032;-78
2022/04/19 03:52:26;;;;;;;4.47;2.78;;;;;;;;;;5053767;28;20029;-77
2022/04/19 03:54:52;;;;;;;5.63;2.95;;;;;;;;;;5055242;28;20489;-79
2022/04/19 03:57:18;;;;;;;3.85;2.53;;;;;;;;;;5053474;28;20063;-77
2022/04/19 03:59:44;;;;;;;7.45;3.10;;;;;;;;;;5055150;28;20017;-77
2022/04/19 04:02:09;;;;;;;4.70;3.03;;;;;;;;;;5054096;28;20482;-77
2022/04/19 04:04:36;;;;;;;5.78;3.08;;;;;;;;;;5053804;28;20025;-76
2022/04/19 04:07:03;;;;;;;5.55;3.20;;;;;;;;;;5054506;28;20021;-78
2022/04/19 04:09:35;;;;;;;5.80;2.95;;;;;;;;;;5053416;28;20024;-78
2022/04/19 04:12:06;;;;;;;5.32;2.80;;;;;;;;;;5054005;28;20029;-78
2022/04/19 04:14:32;;;;;;;4.35;2.90;;;;;;;;;;5054471;28;20035;-78
2022/04/19 04:16:58;;;;;;;5.13;2.83;;;;;;;;;;5055075;28;20490;-78
2022/04/19 04:19:23;;;;;;;6.07;2.72;;;;;;;;;;5054010;28;20029;-77
2022/04/19 04:21:48;;;;;;;4.43;2.90;;;;;;;;;;5052694;28;20475;-77
2022/04/19 04:24:13;;;;;;;4.43;2.72;;;;;;;;;;5054646;28;20021;-77
2022/04/19 04:26:39;;;;;;;4.00;2.60;;;;;;;;;;5054159;28;20024;-77
2022/04/19 04:29:04;;;;;;;5.63;3.22;;;;;;;;;;5052786;28;20395;-77
2022/04/19 04:31:29;;;;;;;5.00;2.67;;;;;;;;;;5053960;28;20398;-78
2022/04/19 04:33:55;;;;;;;4.85;3.40;;;;;;;;;;5052883;28;20017;-78
2022/04/19 04:36:20;;;;;;;6.28;3.00;;;;;;;;;;5054069;28;20087;-78
2022/04/19 04:38:46;;;;;;;6.20;2.90;;;;;;;;;;5052627;28;20095;-78
2022/04/19 04:41:11;;;;;;;5.20;2.90;;;;;;;;;;5054660;28;20258;-77
2022/04/19 04:43:39;;;;;;;4.95;2.72;;;;;;;;;;5054399;28;20032;-79
2022/04/19 04:51:32;;;;;;;6.72;2.97;;;;;;;;;;5054551;28;20060;-79
2022/04/19 04:53:57;;;;;;;4.05;2.78;;;;;;;;;;5053284;28;20024;-78
2022/04/19 04:56:23;;;;;;;4.93;2.70;;;;;;;;;;5053973;28;20060;-79
2022/04/19 04:58:49;;;;;;;4.95;2.67;;;;;;;;;;5052082;28;20308;-78
2022/04/19 05:01:14;;;;;;;4.72;2.40;;;;;;;;;;5053313;28;20029;-78
2022/04/19 05:03:39;;;;;;;5.67;2.73;;;;;;;;;;5053778;28;20108;-78
2022/04/19 05:06:05;;;;;;;4.53;2.65;;;;;;;;;;5053739;28;20289;-78
2022/04/19 05:08:40;;;;;;;5.28;2.78;;;;;;;;;;5052094;28;20440;-78
2022/04/19 05:11:05;;;;;;;6.43;2.80;;;;;;;;;;5053645;28;20036;-78
2022/04/19 05:13:31;;;;;;;4.20;2.83;;;;;;;;;;5052988;28;20482;-77
2022/04/19 05:15:58;;;;;;;4.22;2.55;;;;;;;;;;5051548;28;20493;-78
2022/04/19 05:18:24;;;;;;;7.18;2.92;;;;;;;;;;5053407;28;20497;-76
2022/04/19 05:20:49;;;;;;;4.38;2.67;;;;;;;;;;5052906;28;20100;-77
2022/04/19 05:23:14;;;;;;;3.43;2.27;;;;;;;;;;5057488;28;20028;-77
2022/04/19 05:25:40;;;;;;;4.97;2.90;;;;;;;;;;5059564;28;20272;-78
2022/04/19 05:28:05;;;;;;;5.18;2.97;;;;;;;;;;5057536;28;20391;-77
2022/04/19 05:30:30;;;;;;;4.82;2.80;;;;;;;;;;5057806;28;20025;-78
2022/04/19 05:32:55;;;;;;;4.63;2.80;;;;;;;;;;5057019;28;20453;-77
2022/04/19 05:35:21;;;;;;;6.47;2.70;;;;;;;;;;5057285;28;20704;-78
2022/04/19 05:37:46;;;;;;;4.78;2.70;;;;;;;;;;5056639;28;20702;-76
2022/04/19 05:40:11;;;;;;;3.80;2.60;;;;;;;;;;5057650;28;20043;-78
2022/04/19 05:42:37;;;;;;;7.35;2.50;;;;;;;;;;5055712;28;20035;-77
2022/04/19 05:45:02;;;;;;;4.63;2.70;;;;;;;;;;5056509;28;20033;-77
2022/04/19 05:47:28;;;;;;;7.53;2.88;;;;;;;;;;5056587;28;20100;-78
2022/04/19 05:49:53;;;;;;;7.37;3.17;;;;;;;;;;5056879;28;20033;-77
2022/04/19 05:52:18;;;;;;;7.82;2.88;;;;;;;;;;5056628;28;20261;-77
2022/04/19 05:54:43;;;;;;;4.93;2.83;;;;;;;;;;5056758;28;20049;-77
2022/04/19 05:57:11;;;;;;;3.13;2.22;;;;;;;;;;5057284;28;20029;-78
2022/04/19 05:59:36;;;;;;;7.43;3.03;;;;;;;;;;5056806;28;20177;-78
2022/04/19 06:04:53;;;;;;;5.00;2.90;;;;;;;;;;5056663;28;20032;-77
2022/04/19 06:07:22;;;;;;;3.45;2.42;;;;;;;;;;5056299;28;20049;-78
2022/04/19 06:09:47;;;;;;;4.53;2.88;;;;;;;;;;5056421;28;20104;-77
2022/04/19 06:12:13;;;;;;;4.45;2.65;;;;;;;;;;5056010;28;20435;-77
2022/04/19 06:14:38;;;;;;;3.50;2.20;;;;;;;;;;5056170;28;20040;-78
2022/04/19 06:17:04;;;;;;;7.05;2.80;;;;;;;;;;5054665;28;20067;-78
2022/04/19 06:19:30;;;;;;;4.60;2.90;;;;;;;;;;5055983;28;20021;-77
2022/04/19 06:21:56;;;;;;;5.07;3.17;;;;;;;;;;5057226;28;20025;-78
2022/04/19 06:24:21;;;;;;;4.78;3.05;;;;;;;;;;5056116;28;20055;-78
2022/04/19 06:26:46;;;;;;;4.87;3.00;;;;;;;;;;5054602;28;20029;-77
2022/04/19 06:29:11;;;;;;;7.13;2.87;;;;;;;;;;5055634;28;20254;-77
2022/04/19 06:31:37;;;;;;;6.17;2.73;;;;;;;;;;5056183;28;20294;-77
2022/04/19 06:34:02;;;;;;;6.45;2.88;;;;;;;;;;5055176;28;20269;-79
2022/04/19 06:36:27;;;;;;;6.23;2.80;;;;;;;;;;5056307;28;20164;-78
2022/04/19 06:38:53;;;;;;;4.43;3.10;;;;;;;;;;5056373;28;20273;-78
2022/04/19 06:41:18;;;;;;;4.40;2.92;;;;;;;;;;5056443;28;20262;-78
2022/04/19 06:43:44;;;;;;;4.60;3.05;;;;;;;;;;5055928;28;20020;-78
2022/04/19 06:46:09;;;;;;;5.15;2.80;;;;;;;;;;5054968;28;20096;-77
2022/04/19 06:48:34;;;;;;;6.07;3.00;;;;;;;;;;5055145;28;20115;-77
2022/04/19 06:51:00;;;;;;;5.23;2.80;;;;;;;;;;5054230;28;20025;-78
2022/04/19 06:53:29;;;;;;;4.18;2.90;;;;;;;;;;5054264;28;20270;-78
2022/04/19 06:55:57;;;;;;;5.43;2.72;;;;;;;;;;5057595;28;20029;-79
2022/04/19 06:58:23;;;;;;;3.47;2.38;;;;;;;;;;5057088;28;20036;-78
2022/04/19 07:00:48;;;;;;;4.50;2.80;;;;;;;;;;5054102;28;20025;-78
2022/04/19 07:03:14;;;;;;;4.22;2.85;;;;;;;;;;5055015;28;20021;-78
2022/04/19 07:05:39;;;;;;;7.40;3.22;;;;;;;;;;5056560;28;20028;-79
2022/04/19 07:08:06;;;;;;;4.95;3.00;;;;;;;;;;5055074;28;20393;-78
2022/04/19 07:10:33;;;;;;;5.43;3.22;;;;;;;;;;5056527;28;20086;-78
2022/04/19 07:12:59;;;;;;;5.75;3.45;;;;;;;;;;5056967;28;20024;-79
2022/04/19 07:15:24;;;;;;;5.53;3.30;;;;;;;;;;5055269;28;20150;-77
2022/04/19 07:17:49;;;;;;;7.83;3.10;;;;;;;;;;5054853;28;20037;-77
2022/04/19 07:28:26;;;;;;;6.13;3.17;;;;;;;;;;5054621;28;20060;-76
2022/04/19 07:30:51;;;;;;;6.80;3.65;;;;;;;;;;5052923;28;20028;-78
2022/04/19 07:33:17;;;;;;;5.72;2.88;;;;;;;;;;5054255;28;20540;-77
2022/04/19 07:35:46;;;;;;;4.05;2.78;;;;;;;;;;5055008;28;20116;-78
2022/04/19 07:38:11;;;;;;;5.38;3.20;;;;;;;;;;5055619;28;20025;-78
2022/04/19 07:40:37;;;;;;;5.88;2.92;;;;;;;;;;5054515;28;20032;-77
2022/04/19 07:43:02;;;;;;;5.63;3.08;;;;;;;;;;5055387;28;20505;-79
2022/04/19 07:45:29;;;;;;;5.78;3.15;;;;;;;;;;5056277;28;20032;-78
2022/04/19 07:47:54;;;;;;;6.53;3.30;;;;;;;;;;5055334;28;20085;-78
2022/04/19 07:50:20;;;;;;;10.05;3.80;;;;;;;;;;5056303;28;20025;-79
2022/04/19 07:52:45;;;;;;;5.67;2.80;;;;;;;;;;5055627;28;20028;-79
2022/04/19 07:55:10;;;;;;;5.72;3.40;;;;;;;;;;5055148;28;20262;-79
2022/04/19 07:57:36;;;;;;;7.00;3.45;;;;;;;;;;5054853;28;20039;-78
2022/04/19 08:00:01;;;;;;;4.97;3.13;;;;;;;;;;5054454;28;20099;-76
2022/04/19 08:02:28;;;;;;;5.63;3.33;;;;;;;;;;5052665;28;20029;-77
2022/04/19 08:04:54;;;;;;;6.32;3.30;;;;;;;;;;5054020;28;20517;-77
2022/04/19 08:07:20;;;;;;;5.70;3.47;;;;;;;;;;5052909;28;20378;-77
2022/04/19 08:09:46;;;;;;;7.15;3.25;;;;;;;;;;5053753;28;20029;-78
2022/04/19 08:12:11;;;;;;;5.32;3.33;;;;;;;;;;5053900;28;20021;-77
2022/04/19 08:14:37;;;;;;;4.30;3.05;;;;;;;;;;5052428;28;20037;-78
2022/04/19 08:17:02;;;;;;;5.07;3.17;;;;;;;;;;5053429;28;20430;-78
2022/04/19 08:19:28;;;;;;;7.57;3.13;;;;;;;;;;5053591;28;20470;-77
2022/04/19 08:21:53;;;;;;;5.70;3.17;;;;;;;;;;5053994;28;20040;-78
2022/04/19 08:24:18;;;;;;;6.40;3.45;;;;;;;;;;5053937;28;20262;-73
2022/04/19 08:26:44;;;;;;;5.22;3.10;;;;;;;;;;5053312;28;20041;-75
2022/04/19 08:29:09;;;;;;;6.25;3.25;;;;;;;;;;5053335;28;20037;-75
2022/04/19 08:31:35;;;;;;;4.77;2.97;;;;;;;;;;5055079;28;20029;-78
2022/04/19 08:34:00;;;;;;;4.20;2.40;;;;;;;;;;5053376;28;20266;-78
2022/04/19 08:36:25;;;;;;;7.10;3.50;;;;;;;;;;5054656;28;20029;-78
2022/04/19 08:38:51;;;;;;;6.28;3.08;;;;;;;;;;5053770;28;20078;-77
2022/04/19 08:41:18;;;;;;;5.63;3.00;;;;;;;;;;5054365;28;20036;-77
2022/04/19 08:43:45;;;;;;;8.60;2.67;;;;;;;;;;5054604;28;20024;-78
2022/04/19 08:46:10;;;;;;;4.60;2.10;;;;;;;;;;5054952;28;20158;-78
2022/04/19 08:48:38;;;;;;;4.37;2.37;;;;;;;;;;5054639;28;20431;-76
2022/04/19 08:51:05;;;;;;;5.10;2.33;;;;;;;;;;5053142;28;20269;-77
2022/04/19 08:59:29;;;;;;;3.08;1.77;;;;;;;;;;5055412;28;20418;-78
2022/04/19 09:01:54;;;;;;;4.63;2.38;;;;;;;;;;5058150;28;20037;-77
2022/04/19 09:04:22;;;;;;;5.07;1.85;;;;;;;;;;5057720;28;20028;-78
2022/04/19 09:06:53;;;;;;;4.90;1.77;;;;;;;;;;5059226;28;20028;-78
2022/04/19 09:09:22;;;;;;;12.25;2.28;;;;;;;;;;5058651;28;20032;-78
2022/04/19 09:11:48;;;;;;;5.93;2.50;;;;;;;;;;5058860;28;20055;-79
2022/04/19 09:14:13;;;;;;;5.93;2.40;;;;;;;;;;5057696;28;20509;-77
2022/04/19 09:16:38;;;;;;;3.75;2.38;;;;;;;;;;5057497;28;20025;-78
2022/04/19 09:19:03;;;;;;;4.63;2.20;;;;;;;;;;5057503;28;20057;-79
2022/04/19 09:21:39;;;;;;;5.07;2.25;;;;;;;;;;5059331;28;20017;-79
2022/04/19 09:24:21;;;;;;;5.25;2.00;;;;;;;;;;5058975;28;20107;-79
2022/04/19 09:26:50;;;;;;;3.28;2.10;;;;;;;;;;5059313;28;20428;-79
2022/04/19 09:29:23;;;;;;;6.78;1.90;;;;;;;;;;5058077;28;20035;-79
2022/04/19 09:31:51;;;;;;;5.35;2.30;;;;;;;;;;5059328;28;20040;-79
2022/04/19 09:34:28;;;;;;;5.10;2.13;;;;;;;;;;5058521;28;20462;-79
2022/04/19 09:37:06;;;;;;;6.07;2.47;;;;;;;;;;5058932;28;20025;-79
2022/04/19 09:39:34;;;;;;;4.63;2.40;;;;;;;;;;5057269;28;20049;-79
2022/04/19 09:42:01;;;;;;;7.85;2.38;;;;;;;;;;5058220;28;20064;-78
2022/04/19 09:44:29;;;;;;;2.45;1.52;;;;;;;;;;5057670;28;20070;-78
2022/04/19 09:47:04;;;;;;;5.68;2.30;;;;;;;;;;5058259;28;20436;-79
2022/04/19 09:49:53;;;;;;;3.28;1.88;;;;;;;;;;5057354;28;20478;-79
2022/04/19 09:52:38;;;;;;;4.15;1.90;;;;;;;;;;5059646;28;20382;-78
2022/04/19 09:55:08;;;;;;;3.13;1.75;;;;;;;;;;5057359;28;20501;-78
2022/04/19 09:57:36;;;;;;;3.25;1.92;;;;;;;;;;5056487;28;20060;-77
2022/04/19 10:00:07;;;;;;;4.55;2.10;;;;;;;;;;5055079;28;20089;-77
2022/04/19 10:08:21;;;;;;;3.40;1.17;;;;;;;;;;5057171;28;20116;-79
2022/04/19 10:10:52;;;;;;;3.95;1.48;;;;;;;;;;5057725;28;20367;-79
2022/04/19 10:13:20;;;;;;;3.17;1.98;;;;;;;;;;5057754;28;20449;-79
2022/04/19 10:15:46;;;;;;;5.38;1.80;;;;;;;;;;5057530;28;20023;-79
2022/04/19 10:18:12;;;;;;;3.83;1.90;;;;;;;;;;5058179;28;20112;-79
2022/04/19 10:20:54;;;;;;;4.35;1.45;;;;;;;;;;5058489;28;20021;-79
2022/04/19 10:23:21;;;;;;;6.57;2.08;;;;;;;;;;5057666;28;20028;-78
2022/04/19 10:25:48;;;;;;;2.90;1.65;;;;;;;;;;5056542;28;20028;-78
2022/04/19 10:28:13;;;;;;;2.80;1.70;;;;;;;;;;5057044;28;20025;-77
2022/04/19 10:30:46;;;;;;;6.00;1.70;;;;;;;;;;5056438;28;20029;-78
2022/04/19 10:33:49;;;;;;;3.70;2.10;;;;;;;;;;5056974;28;20261;-78
2022/04/19 10:36:23;;;;;;;3.50;1.50;;;;;;;;;;5056458;28;20025;-78
2022/04/19 10:39:13;;;;;;;3.92;1.60;;;;;;;;;;5055372;28;20029;-78
2022/04/19 10:41:59;;;;;;;2.70;1.80;;;;;;;;;;5055849;28;20370;-78
2022/04/19 10:44:48;;;;;;;3.60;1.60;;;;;;;;;;5057384;28;20021;-78
2022/04/19 10:47:23;;;;;;;1.92;1.33;;;;;;;;;;5056569;28;20516;-77
2022/04/19 10:49:49;;;;;;;5.80;1.70;;;;;;;;;;5055479;28;20485;-79
2022/04/19 10:52:36;;;;;;;2.00;1.20;;;;;;;;;;5057453;28;20036;-79
2022/04/19 10:55:21;;;;;;;2.08;1.15;;;;;;;;;;5055659;28;20021;-78
2022/04/19 10:58:06;;;;;;;1.92;1.20;;;;;;;;;;5057718;28;20021;-79
2022/04/19 11:00:35;;;;;;;2.10;1.23;;;;;;;;;;5056596;28;20446;-79
2022/04/19 11:03:03;;;;;;;6.05;1.30;;;;;;;;;;5057471;28;20052;-79
2022/04/19 11:05:44;;;;;;;1.67;1.20;;;;;;;;;;5057239;28;20029;-79
2022/04/19 11:08:24;;;;;;;2.80;1.40;;;;;;;;;;5057825;28;20027;-79
2022/04/19 11:11:04;;;;;;;6.18;1.67;;;;;;;;;;5053827;28;20029;-77
2022/04/19 11:13:36;;;;;;;1.85;1.23;;;;;;;;;;5057695;28;20031;-78
2022/04/19 11:16:05;;;;;;;1.58;0.95;;;;;;;;;;5055287;28;20079;-78
2022/04/19 11:18:32;;;;;;;2.25;1.40;;;;;;;;;;5056470;28;20367;-80
2022/04/19 11:21:03;;;;;;;1.75;1.23;;;;;;;;;;5057863;28;20184;-79
2022/04/19 11:23:39;;;;;;;1.77;1.30;;;;;;;;;;5057647;28;20017;-79
2022/04/19 11:26:08;;;;;;;4.88;1.17;;;;;;;;;;5055916;28;20028;-78
2022/04/19 11:28:33;;;;;;;2.10;1.27;;;;;;;;;;5057071;28;20032;-78
2022/04/19 11:30:58;;;;;;;2.20;1.30;;;;;;;;;;5056562;28;20021;-78
2022/04/19 11:33:31;;;;;;;5.77;1.57;;;;;;;;;;5056186;28;20033;-79
2022/04/19 11:36:08;;;;;;;2.08;1.50;;;;;;;;;;5056654;28;20028;-79
2022/04/19 11:38:41;;;;;;;2.65;1.45;;;;;;;;;;5054891;28;20033;-78
2022/04/19 11:46:46;;;;;;;2.63;1.17;;;;;;;;;;5055656;28;20114;-79
2022/04/19 11:49:20;;;;;;;0.80;0.80;;;;;;;;;;5056593;28;20021;-79
2022/04/19 11:52:00;;;;;;;2.72;1.10;;;;;;;;;;5054397;28;20029;-78
2022/04/19 11:54:29;;;;;;;2.45;1.20;;;;;;;;;;5054589;28;20059;-78
2022/04/19 11:57:12;;;;;;;5.25;1.10;;;;;;;;;;5054419;28;20080;-77
2022/04/19 11:59:42;;;;;;;1.67;1.23;;;;;;;;;;5054410;28;20392;-79
2022/04/19 12:02:15;;;;;;;2.92;1.23;;;;;;;;;;5054990;28;20025;-78
2022/04/19 12:04:55;;;;;;;2.25;1.20;;;;;;;;;;5055692;28;20052;-78
2022/04/19 12:07:21;;;;;;;1.67;0.98;;;;;;;;;;5055411;28;20017;-78
2022/04/19 12:09:48;;;;;;;2.00;1.20;;;;;;;;;;5055448;28;20025;-78
2022/04/19 12:12:14;;;;;;;2.50;1.08;;;;;;;;;;5056721;28;20461;-78
2022/04/19 12:14:39;;;;;;;4.57;1.00;;;;;;;;;;5055285;28;20025;-79
2022/04/19 12:17:06;;;;;;;3.67;1.40;;;;;;;;;;5054767;28;20029;-80
2022/04/19 12:19:41;;;;;;;3.78;1.38;;;;;;;;;;5055443;28;20315;-79
2022/04/19 12:22:21;;;;;;;2.60;1.30;;;;;;;;;;5054357;28;20035;-79
2022/04/19 12:24:49;;;;;;;1.83;1.10;;;;;;;;;;5054738;28;20059;-78
2022/04/19 12:27:15;;;;;;;2.35;1.00;;;;;;;;;;5053297;28;20055;-78
2022/04/19 12:30:01;;;;;;;1.83;1.00;;;;;;;;;;5052978;28;20021;-78
2022/04/19 12:32:28;;;;;;;2.20;1.55;;;;;;;;;;5054975;28;20044;-79
2022/04/19 12:35:08;;;;;;;2.05;1.30;;;;;;;;;;5056833;28;20422;-79
2022/04/19 12:37:34;;;;;;;2.13;1.25;;;;;;;;;;5054944;28;20033;-79
2022/04/19 12:40:01;;;;;;;1.92;1.23;;;;;;;;;;5054302;28;20056;-78
2022/04/19 12:42:26;;;;;;;1.52;1.08;;;;;;;;;;5054408;28;20101;-78
2022/04/19 12:45:12;;;;;;;2.53;1.20;;;;;;;;;;5056785;28;20033;-80
2022/04/19 12:47:45;;;;;;;2.38;1.30;;;;;;;;;;5056779;28;20124;-79
2022/04/19 12:50:12;;;;;;;1.85;1.05;;;;;;;;;;5056015;28;20447;-80
2022/04/19 12:52:37;;;;;;;1.65;0.82;;;;;;;;;;5055756;28;20120;-80
2022/04/19 12:55:04;;;;;;;1.98;1.23;;;;;;;;;;5055195;28;20080;-80
2022/04/19 12:57:30;;;;;;;4.00;1.23;;;;;;;;;;5056610;28;20025;-79
2022/04/19 12:59:55;;;;;;;1.42;1.05;;;;;;;;;;5056240;28;20033;-79
2022/04/19 13:02:21;;;;;;;2.30;1.25;;;;;;;;;;5056037;28;20504;-79
2022/04/19 13:04:47;;;;;;;1.65;1.02;;;;;;;;;;5056749;28;20402;-79
2022/04/19 13:12:41;;;;;;;2.50;1.40;;;;;;;;;;5056528;28;20110;-79
2022/04/19 13:15:07;;;;;;;1.00;0.80;;;;;;;;;;5056555;28;20494;-80
2022/04/19 13:17:34;;;;;;;3.22;1.13;;;;;;;;;;5061319;28;20032;-79
2022/04/19 13:20:00;;;;;;;2.67;1.13;;;;;;;;;;5066062;28;20049;-79
2022/04/19 13:22:26;;;;;;;1.95;1.17;;;;;;;;;;5065444;28;20024;-79
2022/04/19 13:24:51;;;;;;;0.80;0.80;;;;;;;;;;5064489;28;20135;-79
2022/04/19 13:27:18;;;;;;;2.10;1.38;;;;;;;;;;5064212;28;20083;-79
2022/04/19 13:29:46;;;;;;;2.30;1.20;;;;;;;;;;5059316;28;20036;-78
2022/04/19 13:32:12;;;;;;;3.45;1.50;;;;;;;;;;5061409;28;20099;-78
2022/04/19 13:34:38;;;;;;;3.78;1.20;;;;;;;;;;5060663;28;20021;-78
2022/04/19 13:37:04;;;;;;;1.75;1.05;;;;;;;;;;5061762;28;20021;-80
2022/04/19 13:39:29;;;;;;;1.20;0.80;;;;;;;;;;5063441;28;20025;-79
2022/04/19 13:41:55;;;;;;;2.38;1.13;;;;;;;;;;5061231;28;20025;-78
2022/04/19 13:44:21;;;;;;;3.28;1.20;;;;;;;;;;5060131;28;20029;-79
2022/04/19 13:46:48;;;;;;;1.38;1.05;;;;;;;;;;5057752;28;20375;-78
2022/04/19 13:49:14;;;;;;;6.90;1.38;;;;;;;;;;5059197;28;20493;-79
2022/04/19 13:51:41;;;;;;;1.80;1.27;;;;;;;;;;5059037;28;20166;-79
2022/04/19 13:54:10;;;;;;;5.10;1.70;;;;;;;;;;5058754;28;20028;-79
2022/04/19 13:56:37;;;;;;;2.70;1.15;;;;;;;;;;5058972;28;20067;-79
2022/04/19 13:59:03;;;;;;;4.82;2.10;;;;;;;;;;5058684;28;20100;-78
2022/04/19 14:01:31;;;;;;;2.67;1.60;;;;;;;;;;5057454;28;20029;-78
2022/04/19 14:03:56;;;;;;;1.65;1.40;;;;;;;;;;5057682;28;20102;-79
2022/04/19 14:06:22;;;;;;;4.78;1.80;;;;;;;;;;5058638;28;20398;-79
2022/04/19 14:08:47;;;;;;;6.53;1.63;;;;;;;;;;5058381;28;20474;-79
2022/04/19 14:11:12;;;;;;;4.28;1.42;;;;;;;;;;5058352;28;20107;-79
2022/04/19 14:13:39;;;;;;;3.95;1.60;;;;;;;;;;5056174;28;20029;-78
2022/04/19 14:16:05;;;;;;;4.18;1.80;;;;;;;;;;5057564;28;20029;-79
2022/04/19 14:18:31;;;;;;;2.55;1.60;;;;;;;;;;5057053;28;20060;-79
2022/04/19 14:20:56;;;;;;;5.38;1.85;;;;;;;;;;5058887;28;20032;-78
2022/04/19 14:23:22;;;;;;;2.70;1.77;;;;;;;;;;5056700;28;20133;-78
2022/04/19 14:25:48;;;;;;;7.00;1.50;;;;;;;;;;5057458;28;20017;-79
2022/04/19 14:28:14;;;;;;;4.40;1.60;;;;;;;;;;5058117;28;20024;-78
2022/04/19 14:33:24;;;;;;;2.38;1.30;;;;;;;;;;5056636;28;20039;-78
2022/04/19 14:35:50;;;;;;;3.38;1.85;;;;;;;;;;5057338;28;20025;-79
2022/04/19 14:38:16;;;;;;;4.22;1.70;;;;;;;;;;5057477;28;20156;-79
2022/04/19 14:40:42;;;;;;;3.42;1.45;;;;;;;;;;5057646;28;20061;-78
2022/04/19 14:43:08;;;;;;;3.35;1.77;;;;;;;;;;5056946;28;20028;-79
2022/04/19 14:45:33;;;;;;;5.18;1.90;;;;;;;;;;5055935;28;20033;-79
2022/04/19 14:47:58;;;;;;;2.38;1.40;;;;;;;;;;5054722;28;20017;-77
2022/04/19 14:50:24;;;;;;;1.98;1.40;;;;;;;;;;5056946;28;20029;-78
2022/04/19 14:52:49;;;;;;;2.45;1.40;;;;;;;;;;5057230;28;20024;-78
2022/04/19 14:55:15;;;;;;;2.00;1.40;;;;;;;;;;5056025;28;20021;-81
2022/04/19 14:57:42;;;;;;;3.05;1.55;;;;;;;;;;5054957;28;20317;-77
2022/04/19 15:00:08;;;;;;;3.33;1.65;;;;;;;;;;5056673;28;20039;-79
2022/04/19 15:02:34;;;;;;;3.40;1.55;;;;;;;;;;5055887;28;20033;-79
2022/04/19 15:05:04;;;;;;;2.75;1.63;;;;;;;;;;5055564;28;20031;-79
2022/04/19 15:07:30;;;;;;;3.13;1.88;;;;;;;;;;5055943;28;20486;-77
2022/04/19 15:09:55;;;;;;;2.25;1.60;;;;;;;;;;5054890;28;20028;-80
2022/04/19 15:12:22;;;;;;;4.37;1.93;;;;;;;;;;5055795;28;20552;-77
2022/04/19 15:14:48;;;;;;;3.25;1.65;;;;;;;;;;5054938;28;20327;-78
2022/04/19 15:17:14;;;;;;;4.13;1.92;;;;;;;;;;5054511;28;20021;-79
2022/04/19 15:19:40;;;;;;;3.13;1.60;;;;;;;;;;5055366;28;20025;-77
2022/04/19 15:22:05;;;;;;;4.00;1.50;;;;;;;;;;5055164;28;20017;-77
2022/04/19 15:24:30;;;;;;;5.35;1.75;;;;;;;;;;5054324;28;20024;-78
2022/04/19 15:26:55;;;;;;;3.20;1.90;;;;;;;;;;5056178;28;20028;-78
2022/04/19 15:29:24;;;;;;;3.33;2.05;;;;;;;;;;5055363;28;20112;-78
2022/04/19 15:31:49;;;;;;;2.15;1.50;;;;;;;;;;5054860;28;20032;-78